Nova Andradina, Brazil
Current Conditions -  °F | °C
As of 9:00 AM on Monday 24 Nov 2014 (Local Time) from SBMG Reporting Station
Broken Clouds Broken Clouds  
Wind Chill: 77°   Ceiling: 10000
Heat Index: 79°   Visibility: 6mi
Dew Point: 66°   Wind: 15mph
Humidity: 69%   Direction: 40°NE
Pressure: 29.94"   Gusts: 26mph
Location:  22.23°S, 53.34°W
Report Text: SBMG 241200Z 04013G23KT 9999 FEW035 BKN100 25/19 Q1014
Loading
Personal Weather Stations






























Interactive Weather Map New forecast layout! Learn more

10-Day Weather Forecast

Advertisements
Track Severe Weather on mobile